sensor_id;sensor_type;location;lat;lon;timestamp;pressure;altitude;pressure_sealevel;temperature;humidity
48555;BME280;34336;48.270;16.716;2022-12-18T00:03:55;79362.44;;;18.16;100.00
48555;BME280;34336;48.270;16.716;2022-12-18T00:06:23;79360.53;;;18.16;100.00
48555;BME280;34336;48.270;16.716;2022-12-18T00:08:50;79379.81;;;18.16;100.00
48555;BME280;34336;48.270;16.716;2022-12-18T00:11:18;79397.16;;;18.16;100.00
48555;BME280;34336;48.270;16.716;2022-12-18T00:13:45;79397.16;;;18.16;100.00
48555;BME280;34336;48.270;16.716;2022-12-18T00:16:13;79389.44;;;18.16;100.00
48555;BME280;34336;48.270;16.716;2022-12-18T00:18:40;79399.09;;;18.16;99.61
48555;BME280;34336;48.270;16.716;2022-12-18T00:21:08;79412.59;;;18.16;99.35
48555;BME280;34336;48.270;16.716;2022-12-18T00:23:35;79393.31;;;18.16;100.00
48555;BME280;34336;48.270;16.716;2022-12-18T00:26:07;79406.81;;;18.16;100.00
48555;BME280;34336;48.270;16.716;2022-12-18T00:28:34;79404.88;;;18.16;100.00
48555;BME280;34336;48.270;16.716;2022-12-18T00:33:27;79418.38;;;18.16;100.00
48555;BME280;34336;48.270;16.716;2022-12-18T00:35:54;79414.53;;;18.16;100.00
48555;BME280;34336;48.270;16.716;2022-12-18T00:38:20;79416.44;;;18.16;100.00
48555;BME280;34336;48.270;16.716;2022-12-18T00:40:49;79428.03;;;18.16;100.00
48555;BME280;34336;48.270;16.716;2022-12-18T00:43:15;79439.59;;;18.16;100.00
48555;BME280;34336;48.270;16.716;2022-12-18T00:45:42;79451.16;;;18.16;100.00
48555;BME280;34336;48.270;16.716;2022-12-18T00:48:10;79443.44;;;18.16;100.00
48555;BME280;34336;48.270;16.716;2022-12-18T00:50:36;79458.88;;;18.16;100.00
48555;BME280;34336;48.270;16.716;2022-12-18T00:53:03;79455.03;;;18.16;100.00
48555;BME280;34336;48.270;16.716;2022-12-18T00:55:30;79472.38;;;18.16;100.00
48555;BME280;34336;48.270;16.716;2022-12-18T00:57:57;79468.53;;;18.16;100.00
48555;BME280;34336;48.270;16.716;2022-12-18T01:00:23;79485.88;;;18.16;100.00
48555;BME280;34336;48.270;16.716;2022-12-18T01:02:50;79476.22;;;18.16;100.00
48555;BME280;34336;48.270;16.716;2022-12-18T01:05:16;79489.72;;;18.16;100.00
48555;BME280;34336;48.270;16.716;2022-12-18T01:07:43;79505.16;;;18.16;100.00
48555;BME280;34336;48.270;16.716;2022-12-18T01:10:11;79491.66;;;18.16;100.00
48555;BME280;34336;48.270;16.716;2022-12-18T01:12:38;79491.66;;;18.16;100.00
48555;BME280;34336;48.270;16.716;2022-12-18T01:15:06;79501.31;;;18.16;100.00
48555;BME280;34336;48.270;16.716;2022-12-18T01:17:33;79512.88;;;18.16;100.00
48555;BME280;34336;48.270;16.716;2022-12-18T01:20:00;79505.16;;;18.16;100.00
48555;BME280;34336;48.270;16.716;2022-12-18T01:22:27;79491.66;;;18.16;100.00
48555;BME280;34336;48.270;16.716;2022-12-18T01:24:53;79501.31;;;18.16;100.00
48555;BME280;34336;48.270;16.716;2022-12-18T01:27:21;79493.59;;;18.16;100.00
48555;BME280;34336;48.270;16.716;2022-12-18T01:29:50;79489.72;;;18.16;100.00
48555;BME280;34336;48.270;16.716;2022-12-18T01:32:19;79493.59;;;18.16;100.00
48555;BME280;34336;48.270;16.716;2022-12-18T01:34:46;79499.38;;;18.16;100.00
48555;BME280;34336;48.270;16.716;2022-12-18T01:37:12;79505.16;;;18.16;100.00
48555;BME280;34336;48.270;16.716;2022-12-18T01:39:39;79512.88;;;18.16;100.00
48555;BME280;34336;48.270;16.716;2022-12-18T01:42:10;79520.59;;;18.16;100.00
48555;BME280;34336;48.270;16.716;2022-12-18T01:49:53;79543.75;;;18.16;100.00
48555;BME280;34336;48.270;16.716;2022-12-18T01:52:20;79537.94;;;18.16;100.00
48555;BME280;34336;48.270;16.716;2022-12-18T01:54:48;79547.59;;;18.16;100.00
48555;BME280;34336;48.270;16.716;2022-12-18T01:57:15;79566.88;;;18.16;100.00
48555;BME280;34336;48.270;16.716;2022-12-18T01:59:42;79566.88;;;18.16;100.00
48555;BME280;34336;48.270;16.716;2022-12-18T02:02:10;79582.31;;;18.16;100.00
48555;BME280;34336;48.270;16.716;2022-12-18T02:04:37;79597.75;;;18.16;100.00
48555;BME280;34336;48.270;16.716;2022-12-18T02:07:11;79603.53;;;18.16;100.00
48555;BME280;34336;48.270;16.716;2022-12-18T02:09:41;79591.97;;;18.16;100.00
48555;BME280;34336;48.270;16.716;2022-12-18T02:12:16;79588.09;;;18.16;100.00
48555;BME280;34336;48.270;16.716;2022-12-18T02:14:47;79609.31;;;18.16;100.00
48555;BME280;34336;48.270;16.716;2022-12-18T02:17:18;79613.16;;;18.16;100.00
48555;BME280;34336;48.270;16.716;2022-12-18T02:20:02;79617.03;;;18.16;100.00
48555;BME280;34336;48.270;16.716;2022-12-18T02:27:40;79609.31;;;18.16;100.00
48555;BME280;34336;48.270;16.716;2022-12-18T02:30:08;79613.16;;;18.16;100.00
48555;BME280;34336;48.270;16.716;2022-12-18T02:32:40;79615.09;;;18.16;100.00
48555;BME280;34336;48.270;16.716;2022-12-18T02:35:11;79632.47;;;18.16;100.00
48555;BME280;34336;48.270;16.716;2022-12-18T02:37:40;79630.53;;;18.16;100.00
48555;BME280;34336;48.270;16.716;2022-12-18T02:40:09;79636.31;;;18.16;100.00
48555;BME280;34336;48.270;16.716;2022-12-18T02:42:37;79636.31;;;18.16;100.00
48555;BME280;34336;48.270;16.716;2022-12-18T02:45:06;79632.47;;;18.16;100.00
48555;BME280;34336;48.270;16.716;2022-12-18T02:47:36;79636.31;;;18.16;100.00
48555;BME280;34336;48.270;16.716;2022-12-18T03:02:41;79686.47;;;18.16;100.00
48555;BME280;34336;48.270;16.716;2022-12-18T03:05:13;79694.19;;;18.16;100.00
48555;BME280;34336;48.270;16.716;2022-12-18T03:07:43;79698.03;;;18.16;100.00
48555;BME280;34336;48.270;16.716;2022-12-18T03:10:14;79701.91;;;18.16;100.00
48555;BME280;34336;48.270;16.716;2022-12-18T03:12:44;79709.59;;;18.16;100.00
48555;BME280;34336;48.270;16.716;2022-12-18T03:15:19;79705.75;;;18.16;100.00
48555;BME280;34336;48.270;16.716;2022-12-18T03:18:04;79709.59;;;18.16;100.00
48555;BME280;34336;48.270;16.716;2022-12-18T03:20:34;79713.47;;;18.16;100.00
48555;BME280;34336;48.270;16.716;2022-12-18T03:23:04;79721.19;;;18.16;100.00
48555;BME280;34336;48.270;16.716;2022-12-18T03:25:34;79732.75;;;18.16;100.00
48555;BME280;34336;48.270;16.716;2022-12-18T03:28:04;79748.19;;;18.16;100.00
48555;BME280;34336;48.270;16.716;2022-12-18T03:30:33;79761.69;;;18.16;100.00
48555;BME280;34336;48.270;16.716;2022-12-18T03:33:14;79763.63;;;18.16;100.00
48555;BME280;34336;48.270;16.716;2022-12-18T03:35:45;79755.91;;;18.16;100.00
48555;BME280;34336;48.270;16.716;2022-12-18T03:38:13;79755.91;;;18.16;100.00
48555;BME280;34336;48.270;16.716;2022-12-18T03:41:47;79755.91;;;18.16;100.00
48555;BME280;34336;48.270;16.716;2022-12-18T03:44:04;79767.47;;;18.16;100.00
48555;BME280;34336;48.270;16.716;2022-12-18T03:46:38;79765.53;;;18.16;100.00
48555;BME280;34336;48.270;16.716;2022-12-18T03:49:14;79784.84;;;18.16;100.00
48555;BME280;34336;48.270;16.716;2022-12-18T03:51:50;79792.53;;;18.16;100.00
48555;BME280;34336;48.270;16.716;2022-12-18T03:54:19;79759.75;;;18.16;100.00
48555;BME280;34336;48.270;16.716;2022-12-18T03:57:05;79750.13;;;18.16;100.00
48555;BME280;34336;48.270;16.716;2022-12-18T03:59:34;79769.41;;;18.16;100.00
48555;BME280;34336;48.270;16.716;2022-12-18T04:02:02;79806.06;;;18.16;100.00
48555;BME280;34336;48.270;16.716;2022-12-18T04:04:30;79833.06;;;18.16;100.00
48555;BME280;34336;48.270;16.716;2022-12-18T04:07:00;79844.63;;;18.16;100.00
48555;BME280;34336;48.270;16.716;2022-12-18T04:09:28;79840.78;;;18.16;100.00
48555;BME280;34336;48.270;16.716;2022-12-18T04:11:56;79833.06;;;18.16;100.00
48555;BME280;34336;48.270;16.716;2022-12-18T04:14:24;79836.91;;;18.16;100.00
48555;BME280;34336;48.270;16.716;2022-12-18T04:16:54;79840.78;;;18.16;100.00
48555;BME280;34336;48.270;16.716;2022-12-18T04:19:26;79852.34;;;18.16;100.00
48555;BME280;34336;48.270;16.716;2022-12-18T04:21:53;79848.47;;;18.16;100.00
48555;BME280;34336;48.270;16.716;2022-12-18T04:24:21;79856.19;;;18.16;100.00
48555;BME280;34336;48.270;16.716;2022-12-18T04:26:59;79867.78;;;18.16;100.00
48555;BME280;34336;48.270;16.716;2022-12-18T04:29:31;79883.19;;;18.16;100.00
48555;BME280;34336;48.270;16.716;2022-12-18T04:31:58;79890.91;;;18.16;100.00
48555;BME280;34336;48.270;16.716;2022-12-18T04:34:27;79904.41;;;18.16;100.00
48555;BME280;34336;48.270;16.716;2022-12-18T04:36:54;79896.72;;;18.16;100.00
48555;BME280;34336;48.270;16.716;2022-12-18T04:39:22;79887.06;;;18.16;100.00
48555;BME280;34336;48.270;16.716;2022-12-18T04:41:54;79902.50;;;18.16;100.00
48555;BME280;34336;48.270;16.716;2022-12-18T04:44:21;79910.22;;;18.16;100.00
48555;BME280;34336;48.270;16.716;2022-12-18T04:46:47;79912.13;;;18.16;100.00
48555;BME280;34336;48.270;16.716;2022-12-18T04:49:14;79910.22;;;18.16;100.00
48555;BME280;34336;48.270;16.716;2022-12-18T04:51:40;79917.94;;;18.16;100.00
48555;BME280;34336;48.270;16.716;2022-12-18T04:54:07;79914.06;;;18.16;100.00
48555;BME280;34336;48.270;16.716;2022-12-18T04:56:34;79916.00;;;18.16;100.00
48555;BME280;34336;48.270;16.716;2022-12-18T04:59:00;79921.78;;;18.16;100.00
48555;BME280;34336;48.270;16.716;2022-12-18T05:01:27;79923.72;;;18.16;100.00
48555;BME280;34336;48.270;16.716;2022-12-18T05:04:00;79931.44;;;18.16;100.00
48555;BME280;34336;48.270;16.716;2022-12-18T05:06:27;79943.00;;;18.16;100.00
48555;BME280;34336;48.270;16.716;2022-12-18T05:08:53;79956.50;;;18.16;100.00
48555;BME280;34336;48.270;16.716;2022-12-18T05:11:20;79968.06;;;18.16;100.00
48555;BME280;34336;48.270;16.716;2022-12-18T05:13:46;79966.16;;;18.16;100.00
48555;BME280;34336;48.270;16.716;2022-12-18T05:16:13;79971.94;;;18.16;100.00
48555;BME280;34336;48.270;16.716;2022-12-18T05:18:40;79970.00;;;18.16;100.00
48555;BME280;34336;48.270;16.716;2022-12-18T05:21:07;79971.94;;;18.16;100.00
48555;BME280;34336;48.270;16.716;2022-12-18T05:23:34;79979.66;;;18.16;100.00
48555;BME280;34336;48.270;16.716;2022-12-18T05:26:02;79979.66;;;18.16;100.00
48555;BME280;34336;48.270;16.716;2022-12-18T05:28:30;79987.38;;;18.16;100.00
48555;BME280;34336;48.270;16.716;2022-12-18T05:30:58;79979.66;;;18.16;100.00
48555;BME280;34336;48.270;16.716;2022-12-18T05:33:26;79987.38;;;18.16;100.00
48555;BME280;34336;48.270;16.716;2022-12-18T05:35:53;79989.28;;;18.16;100.00
48555;BME280;34336;48.270;16.716;2022-12-18T05:38:21;80002.78;;;18.16;100.00
48555;BME280;34336;48.270;16.716;2022-12-18T05:40:48;80006.66;;;18.16;100.00
48555;BME280;34336;48.270;16.716;2022-12-18T05:43:15;80016.31;;;18.16;100.00
48555;BME280;34336;48.270;16.716;2022-12-18T05:45:47;80020.16;;;18.16;100.00
48555;BME280;34336;48.270;16.716;2022-12-18T05:48:14;80027.88;;;18.16;100.00
48555;BME280;34336;48.270;16.716;2022-12-18T05:50:41;80033.66;;;18.16;100.00
48555;BME280;34336;48.270;16.716;2022-12-18T05:53:09;80029.81;;;18.16;100.00
48555;BME280;34336;48.270;16.716;2022-12-18T05:55:36;80033.66;;;18.16;100.00
48555;BME280;34336;48.270;16.716;2022-12-18T05:58:04;80039.44;;;18.16;100.00
48555;BME280;34336;48.270;16.716;2022-12-18T06:00:32;80041.38;;;18.16;100.00
48555;BME280;34336;48.270;16.716;2022-12-18T06:02:59;80037.53;;;18.16;100.00
48555;BME280;34336;48.270;16.716;2022-12-18T06:05:25;80054.88;;;18.16;100.00
48555;BME280;34336;48.270;16.716;2022-12-18T06:07:52;80068.38;;;18.16;100.00
48555;BME280;34336;48.270;16.716;2022-12-18T06:10:19;80068.38;;;18.16;100.00
48555;BME280;34336;48.270;16.716;2022-12-18T06:12:45;80068.38;;;18.16;100.00
48555;BME280;34336;48.270;16.716;2022-12-18T06:15:12;80066.44;;;18.16;100.00
48555;BME280;34336;48.270;16.716;2022-12-18T06:17:39;80062.59;;;18.16;100.00
48555;BME280;34336;48.270;16.716;2022-12-18T06:20:06;80060.66;;;18.16;100.00
48555;BME280;34336;48.270;16.716;2022-12-18T06:22:33;80068.38;;;18.16;100.00
48555;BME280;34336;48.270;16.716;2022-12-18T06:25:01;80068.38;;;18.16;100.00
48555;BME280;34336;48.270;16.716;2022-12-18T06:27:28;80068.38;;;18.16;100.00
48555;BME280;34336;48.270;16.716;2022-12-18T06:29:54;80076.09;;;18.16;100.00
48555;BME280;34336;48.270;16.716;2022-12-18T06:32:21;80083.81;;;18.16;100.00
48555;BME280;34336;48.270;16.716;2022-12-18T06:34:48;80081.88;;;18.16;100.00
48555;BME280;34336;48.270;16.716;2022-12-18T06:37:14;80095.38;;;18.16;100.00
48555;BME280;34336;48.270;16.716;2022-12-18T06:39:41;80087.66;;;18.16;100.00
48555;BME280;34336;48.270;16.716;2022-12-18T06:42:09;80093.47;;;18.16;100.00
48555;BME280;34336;48.270;16.716;2022-12-18T06:44:36;80095.38;;;18.16;100.00
48555;BME280;34336;48.270;16.716;2022-12-18T06:47:02;80103.09;;;18.16;100.00
48555;BME280;34336;48.270;16.716;2022-12-18T06:49:29;80099.25;;;18.16;100.00
48555;BME280;34336;48.270;16.716;2022-12-18T06:51:56;80105.03;;;18.16;100.00
48555;BME280;34336;48.270;16.716;2022-12-18T06:54:22;80099.25;;;18.16;100.00
48555;BME280;34336;48.270;16.716;2022-12-18T06:56:49;80103.09;;;18.16;100.00
48555;BME280;34336;48.270;16.716;2022-12-18T06:59:16;80099.25;;;18.16;100.00
48555;BME280;34336;48.270;16.716;2022-12-18T07:01:42;80087.66;;;18.16;100.00
48555;BME280;34336;48.270;16.716;2022-12-18T07:04:09;80081.88;;;18.16;100.00
48555;BME280;34336;48.270;16.716;2022-12-18T07:06:36;80072.25;;;18.16;100.00
48555;BME280;34336;48.270;16.716;2022-12-18T07:09:05;80068.38;;;18.16;100.00
48555;BME280;34336;48.270;16.716;2022-12-18T07:11:32;80052.94;;;18.16;100.00
48555;BME280;34336;48.270;16.716;2022-12-18T07:13:59;80037.53;;;18.16;100.00
48555;BME280;34336;48.270;16.716;2022-12-18T07:16:27;80018.22;;;18.16;100.00
48555;BME280;34336;48.270;16.716;2022-12-18T07:18:57;80010.50;;;18.16;100.00
48555;BME280;34336;48.270;16.716;2022-12-18T07:21:24;79998.94;;;18.16;100.00
48555;BME280;34336;48.270;16.716;2022-12-18T07:23:51;79975.78;;;18.16;100.00
48555;BME280;34336;48.270;16.716;2022-12-18T07:26:19;79956.50;;;18.16;100.00
48555;BME280;34336;48.270;16.716;2022-12-18T07:28:46;79929.50;;;18.16;100.00
48555;BME280;34336;48.270;16.716;2022-12-18T07:31:17;79910.22;;;18.16;98.55
48555;BME280;34336;48.270;16.716;2022-12-18T07:33:44;79885.13;;;18.16;97.34
48555;BME280;34336;48.270;16.716;2022-12-18T07:36:11;79871.63;;;18.16;95.82
48555;BME280;34336;48.270;16.716;2022-12-18T07:38:38;79854.28;;;18.16;94.97
48555;BME280;34336;48.270;16.716;2022-12-18T07:41:06;79881.28;;;18.16;92.84
48555;BME280;34336;48.270;16.716;2022-12-18T07:43:33;79867.78;;;18.16;93.15
48555;BME280;34336;48.270;16.716;2022-12-18T07:46:00;79844.63;;;18.16;92.86
48555;BME280;34336;48.270;16.716;2022-12-18T07:48:27;79831.13;;;18.16;91.73
48555;BME280;34336;48.270;16.716;2022-12-18T07:50:57;79809.91;;;18.16;91.74
48555;BME280;34336;48.270;16.716;2022-12-18T07:53:24;79800.25;;;18.16;91.17
48555;BME280;34336;48.270;16.716;2022-12-18T07:55:54;79794.47;;;18.16;90.11
48555;BME280;34336;48.270;16.716;2022-12-18T07:58:41;79790.63;;;18.16;89.81
48555;BME280;34336;48.270;16.716;2022-12-18T08:01:11;79777.13;;;18.16;89.09
48555;BME280;34336;48.270;16.716;2022-12-18T08:03:38;79773.25;;;18.16;88.09
48555;BME280;34336;48.270;16.716;2022-12-18T08:06:09;79782.91;;;18.16;88.44
48555;BME280;34336;48.270;16.716;2022-12-18T08:08:35;79744.31;;;18.16;89.46
48555;BME280;34336;48.270;16.716;2022-12-18T08:11:02;79723.13;;;18.16;88.32
48555;BME280;34336;48.270;16.716;2022-12-18T08:13:29;79721.19;;;18.16;86.43
48555;BME280;34336;48.270;16.716;2022-12-18T08:16:05;79663.31;;;18.16;87.77
48555;BME280;34336;48.270;16.716;2022-12-18T08:18:33;79669.09;;;18.16;86.03
48555;BME280;34336;48.270;16.716;2022-12-18T08:21:09;79661.38;;;18.16;84.11
48555;BME280;34336;48.270;16.716;2022-12-18T08:23:36;79663.31;;;18.16;83.55
48555;BME280;34336;48.270;16.716;2022-12-18T08:26:08;79638.25;;;18.16;84.69
48555;BME280;34336;48.270;16.716;2022-12-18T08:28:35;79632.47;;;18.16;84.19
48555;BME280;34336;48.270;16.716;2022-12-18T08:31:02;79636.31;;;18.16;83.89
48555;BME280;34336;48.270;16.716;2022-12-18T08:33:29;79638.25;;;18.16;84.29
48555;BME280;34336;48.270;16.716;2022-12-18T08:35:57;79620.88;;;18.16;84.16
48555;BME280;34336;48.270;16.716;2022-12-18T08:38:25;79609.31;;;18.16;82.97
48555;BME280;34336;48.270;16.716;2022-12-18T08:40:58;79617.03;;;18.16;83.19
48555;BME280;34336;48.270;16.716;2022-12-18T08:43:27;79597.75;;;18.16;83.45
48555;BME280;34336;48.270;16.716;2022-12-18T08:46:30;79570.75;;;18.16;83.08
48555;BME280;34336;48.270;16.716;2022-12-18T08:48:58;79597.75;;;18.16;81.46
48555;BME280;34336;48.270;16.716;2022-12-18T08:51:26;79578.47;;;18.16;82.07
48555;BME280;34336;48.270;16.716;2022-12-18T08:53:55;79576.53;;;18.16;81.35
48555;BME280;34336;48.270;16.716;2022-12-18T08:56:23;79551.44;;;18.16;80.10
48555;BME280;34336;48.270;16.716;2022-12-18T08:58:51;79516.72;;;18.16;78.22
48555;BME280;34336;48.270;16.716;2022-12-18T09:01:19;79505.16;;;18.16;77.82
48555;BME280;34336;48.270;16.716;2022-12-18T09:03:47;79536.03;;;18.16;80.29
48555;BME280;34336;48.270;16.716;2022-12-18T09:06:16;79545.66;;;18.16;80.25
48555;BME280;34336;48.270;16.716;2022-12-18T09:08:43;79507.09;;;18.16;80.38
48555;BME280;34336;48.270;16.716;2022-12-18T09:11:29;79474.31;;;18.16;79.71
48555;BME280;34336;48.270;16.716;2022-12-18T09:13:55;79443.44;;;18.16;78.61
48555;BME280;34336;48.270;16.716;2022-12-18T09:16:23;79435.72;;;18.16;77.95
48555;BME280;34336;48.270;16.716;2022-12-18T09:18:57;79424.16;;;18.16;76.21
48555;BME280;34336;48.270;16.716;2022-12-18T09:21:29;79424.16;;;18.16;76.74
48555;BME280;34336;48.270;16.716;2022-12-18T09:23:56;79441.53;;;18.16;76.43
48555;BME280;34336;48.270;16.716;2022-12-18T09:26:24;79449.22;;;18.16;78.35
48555;BME280;34336;48.270;16.716;2022-12-18T09:28:51;79404.88;;;18.16;76.82
48555;BME280;34336;48.270;16.716;2022-12-18T09:31:18;79420.31;;;18.16;76.17
48555;BME280;34336;48.270;16.716;2022-12-18T09:33:45;79420.31;;;18.16;77.32
48555;BME280;34336;48.270;16.716;2022-12-18T09:36:15;79433.81;;;18.16;76.45
48555;BME280;34336;48.270;16.716;2022-12-18T09:38:43;79420.31;;;18.16;76.15
48555;BME280;34336;48.270;16.716;2022-12-18T09:43:52;79472.38;;;18.16;77.78
48555;BME280;34336;48.270;16.716;2022-12-18T09:46:23;79470.44;;;18.16;79.46
48555;BME280;34336;48.270;16.716;2022-12-18T09:48:52;79439.59;;;18.16;81.00
48555;BME280;34336;48.270;16.716;2022-12-18T09:51:24;79416.44;;;18.16;79.29
48555;BME280;34336;48.270;16.716;2022-12-18T09:53:56;79418.38;;;18.16;79.08
48555;BME280;34336;48.270;16.716;2022-12-18T09:56:24;79451.16;;;18.16;80.84
48555;BME280;34336;48.270;16.716;2022-12-18T09:59:00;79483.94;;;18.16;82.92
48555;BME280;34336;48.270;16.716;2022-12-18T10:01:27;79509.03;;;18.16;83.69
48555;BME280;34336;48.270;16.716;2022-12-18T10:04:08;79505.16;;;18.16;83.44
48555;BME280;34336;48.270;16.716;2022-12-18T10:06:37;79485.88;;;18.16;83.68
48555;BME280;34336;48.270;16.716;2022-12-18T10:09:53;79447.31;;;18.16;82.65
48555;BME280;34336;48.270;16.716;2022-12-18T10:11:55;79462.72;;;18.16;81.18
48555;BME280;34336;48.270;16.716;2022-12-18T10:24:30;79451.16;;;18.16;82.36
48555;BME280;34336;48.270;16.716;2022-12-18T10:27:22;79435.72;;;18.16;84.43
48555;BME280;34336;48.270;16.716;2022-12-18T10:29:47;79431.88;;;18.16;83.11
48555;BME280;34336;48.270;16.716;2022-12-18T10:32:17;79455.03;;;18.16;81.78
48555;BME280;34336;48.270;16.716;2022-12-18T10:34:48;79491.66;;;18.16;82.92
48555;BME280;34336;48.270;16.716;2022-12-18T10:37:24;79476.22;;;18.16;83.02
48555;BME280;34336;48.270;16.716;2022-12-18T10:40:06;79451.16;;;18.16;83.24
48555;BME280;34336;48.270;16.716;2022-12-18T10:42:34;79447.31;;;18.16;85.45
48555;BME280;34336;48.270;16.716;2022-12-18T10:45:01;79460.81;;;18.16;84.50
48555;BME280;34336;48.270;16.716;2022-12-18T10:47:29;79445.38;;;18.16;81.94
48555;BME280;34336;48.270;16.716;2022-12-18T10:49:56;79437.66;;;18.16;82.90
48555;BME280;34336;48.270;16.716;2022-12-18T10:52:24;79474.31;;;18.16;84.16
48555;BME280;34336;48.270;16.716;2022-12-18T10:54:52;79491.66;;;18.16;86.09
48555;BME280;34336;48.270;16.716;2022-12-18T10:59:53;79489.72;;;18.16;86.41
48555;BME280;34336;48.270;16.716;2022-12-18T11:02:28;79489.72;;;18.16;86.56
48555;BME280;34336;48.270;16.716;2022-12-18T11:04:59;79493.59;;;18.16;86.08
48555;BME280;34336;48.270;16.716;2022-12-18T11:07:30;79468.53;;;18.16;85.76
48555;BME280;34336;48.270;16.716;2022-12-18T11:10:15;79466.59;;;18.16;84.45
48555;BME280;34336;48.270;16.716;2022-12-18T11:12:43;79499.38;;;18.16;86.12
48555;BME280;34336;48.270;16.716;2022-12-18T11:15:16;79497.44;;;18.16;89.21
48555;BME280;34336;48.270;16.716;2022-12-18T11:17:45;79501.31;;;18.16;90.81
48555;BME280;34336;48.270;16.716;2022-12-18T11:20:21;79507.09;;;18.16;89.21
48555;BME280;34336;48.270;16.716;2022-12-18T11:22:56;79478.16;;;18.16;89.17
48555;BME280;34336;48.270;16.716;2022-12-18T11:25:23;79443.44;;;18.16;86.88
48555;BME280;34336;48.270;16.716;2022-12-18T11:28:04;79443.44;;;18.16;86.08
48555;BME280;34336;48.270;16.716;2022-12-18T11:30:32;79439.59;;;18.16;84.37
48555;BME280;34336;48.270;16.716;2022-12-18T11:33:01;79468.53;;;18.16;84.38
48555;BME280;34336;48.270;16.716;2022-12-18T11:36:12;79474.31;;;18.16;87.52
48555;BME280;34336;48.270;16.716;2022-12-18T11:40:47;79443.44;;;18.16;86.54
48555;BME280;34336;48.270;16.716;2022-12-18T11:43:17;79458.88;;;18.16;85.27
48555;BME280;34336;48.270;16.716;2022-12-18T11:45:49;79431.88;;;18.16;85.79
48555;BME280;34336;48.270;16.716;2022-12-18T11:50:52;79404.88;;;18.16;84.88
48555;BME280;34336;48.270;16.716;2022-12-18T11:53:19;79402.94;;;18.16;83.95
48555;BME280;34336;48.270;16.716;2022-12-18T12:01:01;79294.94;;;18.16;91.02
48555;BME280;34336;48.270;16.716;2022-12-18T12:03:52;79358.59;;;18.16;86.15
48555;BME280;34336;48.270;16.716;2022-12-18T12:06:26;79414.53;;;18.16;86.23
48555;BME280;34336;48.270;16.716;2022-12-18T12:14:07;79416.44;;;18.16;86.15
48555;BME280;34336;48.270;16.716;2022-12-18T12:37:49;79393.31;;;18.16;82.19
48555;BME280;34336;48.270;16.716;2022-12-18T12:40:23;79420.31;;;18.16;82.87
48555;BME280;34336;48.270;16.716;2022-12-18T12:46:10;79416.44;;;18.16;83.97
48555;BME280;34336;48.270;16.716;2022-12-18T12:51:16;79412.59;;;18.16;84.64
48555;BME280;34336;48.270;16.716;2022-12-18T12:53:44;79412.59;;;18.16;83.96
48555;BME280;34336;48.270;16.716;2022-12-18T12:56:13;79462.72;;;18.16;84.18
48555;BME280;34336;48.270;16.716;2022-12-18T13:01:16;79468.53;;;18.16;86.52
48555;BME280;34336;48.270;16.716;2022-12-18T13:06:37;79501.31;;;18.16;88.31
48555;BME280;34336;48.270;16.716;2022-12-18T13:09:10;79501.31;;;18.16;89.89
48555;BME280;34336;48.270;16.716;2022-12-18T13:11:41;79493.59;;;18.16;89.43
48555;BME280;34336;48.270;16.716;2022-12-18T13:14:40;79514.81;;;18.16;89.71
48555;BME280;34336;48.270;16.716;2022-12-18T13:17:17;79499.38;;;18.16;89.71
48555;BME280;34336;48.270;16.716;2022-12-18T13:19:52;79510.94;;;18.16;89.22
48555;BME280;34336;48.270;16.716;2022-12-18T13:22:31;79532.16;;;18.16;88.98
48555;BME280;34336;48.270;16.716;2022-12-18T13:24:58;79520.59;;;18.16;88.45
48555;BME280;34336;48.270;16.716;2022-12-18T13:27:45;79512.88;;;18.16;88.42
48555;BME280;34336;48.270;16.716;2022-12-18T13:38:20;79557.25;;;18.16;89.88
48555;BME280;34336;48.270;16.716;2022-12-18T13:45:59;79518.66;;;18.16;88.74
48555;BME280;34336;48.270;16.716;2022-12-18T13:48:26;79520.59;;;18.16;87.54
48555;BME280;34336;48.270;16.716;2022-12-18T13:50:55;79528.31;;;18.16;87.98
48555;BME280;34336;48.270;16.716;2022-12-18T13:53:28;79524.44;;;18.16;87.78
48555;BME280;34336;48.270;16.716;2022-12-18T13:55:56;79549.53;;;18.16;88.52
48555;BME280;34336;48.270;16.716;2022-12-18T13:58:23;79570.75;;;18.16;90.71
48555;BME280;34336;48.270;16.716;2022-12-18T14:00:50;79559.16;;;18.16;92.50
48555;BME280;34336;48.270;16.716;2022-12-18T14:03:19;79547.59;;;18.16;91.82
48555;BME280;34336;48.270;16.716;2022-12-18T14:06:05;79551.44;;;18.16;91.71
48555;BME280;34336;48.270;16.716;2022-12-18T14:08:39;79537.94;;;18.16;91.61
48555;BME280;34336;48.270;16.716;2022-12-18T14:11:18;79537.94;;;18.16;91.82
48555;BME280;34336;48.270;16.716;2022-12-18T14:13:46;79534.09;;;18.16;89.97
48555;BME280;34336;48.270;16.716;2022-12-18T14:16:14;79537.94;;;18.16;90.42
48555;BME280;34336;48.270;16.716;2022-12-18T14:18:48;79541.81;;;18.16;90.51
48555;BME280;34336;48.270;16.716;2022-12-18T14:21:26;79547.59;;;18.16;90.79
48555;BME280;34336;48.270;16.716;2022-12-18T14:26:50;79555.31;;;18.16;90.78
48555;BME280;34336;48.270;16.716;2022-12-18T14:29:18;79566.88;;;18.16;91.69
48555;BME280;34336;48.270;16.716;2022-12-18T14:32:03;79574.59;;;18.16;93.47
48555;BME280;34336;48.270;16.716;2022-12-18T14:34:30;79570.75;;;18.16;93.67
48555;BME280;34336;48.270;16.716;2022-12-18T14:36:56;79566.88;;;18.16;92.85
48555;BME280;34336;48.270;16.716;2022-12-18T14:39:23;79574.59;;;18.16;92.65
48555;BME280;34336;48.270;16.716;2022-12-18T14:41:52;79578.47;;;18.16;92.43
48555;BME280;34336;48.270;16.716;2022-12-18T14:44:19;79574.59;;;18.16;92.88
48555;BME280;34336;48.270;16.716;2022-12-18T14:46:48;79505.16;;;18.16;97.29